Lake Leelanau, Michigan
Current Conditions -  °F | °C
As of 11:53 AM on Friday 28 Nov 2014 (Local Time) from KTVC Reporting Station
Overcast Overcast  
Wind Chill: 15°   Ceiling: 8000
Heat Index: 23°   Visibility: 10mi
Dew Point: 15°   Wind: 7mph
Humidity: 72%   Direction: NA
Pressure: 30.18"   Gusts: NA
Location:  44.98°N, 85.71°W
Report Text: KTVC 281653Z VRB06KT 10SM SCT065 BKN080 OVC100 M05/M09 A3018 RMK AO2 SLP231 T10501094
Loading
Personal Weather Stations






























Interactive Weather Map New forecast layout! Learn more

10-Day Weather Forecast

Advertisements
Track Severe Weather on mobile